Time;durP1;ratioP1;P1;durP2;ratioP2;P2;SDS_P1;SDS_P2;PMS_P1;PMS_P2;Temp;Humidity;BMP_temperature;BMP_pressure;BME280_temperature;BME280_humidity;BME280_pressure;Samples;Min_cycle;Max_cycle;Signal;HPM_P1;HPM_P2
2022/12/14 00:01:26;;;;;;;77.78;35.03;;;-5.10;99.90;;;;;;5029629;28;20049;-48
2022/12/14 00:03:53;;;;;;;74.60;33.80;;;-5.10;99.90;;;;;;5030043;28;20049;-48
2022/12/14 00:06:27;;;;;;;75.30;33.50;;;-5.20;99.90;;;;;;5028458;28;20833;-49
2022/12/14 00:08:58;;;;;;;73.57;35.42;;;-5.30;99.90;;;;;;5029791;28;20045;-47
2022/12/14 00:11:25;;;;;;;70.03;33.78;;;-5.30;99.90;;;;;;5029741;28;20045;-51
2022/12/14 00:13:56;;;;;;;68.25;33.72;;;-5.30;99.90;;;;;;5029548;28;20041;-49
2022/12/14 00:16:23;;;;;;;68.28;33.22;;;-5.30;99.90;;;;;;5027869;28;20041;-48
2022/12/14 00:18:52;;;;;;;76.35;33.22;;;-5.30;99.90;;;;;;5029629;28;20038;-49
2022/12/14 00:21:18;;;;;;;68.03;32.55;;;-5.30;99.90;;;;;;5029331;28;20483;-48
2022/12/14 00:23:45;;;;;;;76.05;35.20;;;-5.30;99.90;;;;;;5029114;28;20041;-49
2022/12/14 00:26:20;;;;;;;70.95;32.50;;;-5.30;99.90;;;;;;5029349;28;20041;-47
2022/12/14 00:28:47;;;;;;;72.38;31.98;;;-5.50;99.90;;;;;;5029455;28;20041;-48
2022/12/14 00:31:14;;;;;;;71.82;31.67;;;-5.50;99.90;;;;;;5029214;28;20487;-48
2022/12/14 00:33:39;;;;;;;64.60;31.35;;;-5.60;99.90;;;;;;5029333;28;20832;-47
2022/12/14 00:36:07;;;;;;;63.00;30.38;;;-5.50;99.90;;;;;;5028946;28;20053;-50
2022/12/14 00:38:33;;;;;;;68.18;31.90;;;-5.70;99.90;;;;;;5029339;28;20055;-50
2022/12/14 00:40:59;;;;;;;66.18;31.33;;;-5.70;99.90;;;;;;5028055;28;20102;-47
2022/12/14 00:43:24;;;;;;;62.78;31.40;;;-5.70;99.90;;;;;;5028541;28;20063;-47
2022/12/14 00:45:51;;;;;;;66.47;31.15;;;-5.80;99.90;;;;;;5028879;28;20041;-50
2022/12/14 00:48:18;;;;;;;64.80;31.70;;;-5.90;99.90;;;;;;5026926;28;20152;-48
2022/12/14 00:50:46;;;;;;;70.93;31.58;;;-5.90;99.90;;;;;;5028379;28;20065;-48
2022/12/14 00:53:12;;;;;;;56.78;29.20;;;-5.70;99.90;;;;;;5028622;28;20377;-49
2022/12/14 00:55:42;;;;;;;67.47;30.85;;;-5.80;99.90;;;;;;5028443;28;20044;-51
2022/12/14 00:58:10;;;;;;;60.83;28.38;;;-5.80;99.90;;;;;;5027026;28;20045;-47
2022/12/14 01:00:35;;;;;;;65.25;30.02;;;-5.80;99.90;;;;;;5028363;28;20053;-51
2022/12/14 01:03:01;;;;;;;56.85;27.98;;;-5.70;99.90;;;;;;5028613;28;20509;-48
2022/12/14 01:05:27;;;;;;;61.72;28.45;;;-5.60;99.90;;;;;;5028039;28;20494;-49
2022/12/14 01:07:53;;;;;;;61.60;27.73;;;-5.60;99.90;;;;;;5028072;28;20391;-49
2022/12/14 01:10:19;;;;;;;69.15;28.80;;;-5.60;99.90;;;;;;5027888;28;20045;-48
2022/12/14 01:12:44;;;;;;;58.95;28.80;;;-5.70;99.90;;;;;;5028195;28;20052;-47
2022/12/14 01:15:10;;;;;;;64.15;29.92;;;-5.70;99.90;;;;;;5026269;28;20049;-47
2022/12/14 01:17:36;;;;;;;64.82;28.63;;;-5.60;99.90;;;;;;5028037;28;20045;-47
2022/12/14 01:20:03;;;;;;;59.47;27.70;;;-5.70;99.90;;;;;;5027952;28;20052;-49
2022/12/14 01:22:29;;;;;;;58.67;28.80;;;-5.70;99.90;;;;;;5027717;28;20083;-47
2022/12/14 01:24:55;;;;;;;64.72;28.58;;;-5.70;99.90;;;;;;5027959;28;20076;-49
2022/12/14 01:27:20;;;;;;;62.65;28.52;;;-5.80;99.90;;;;;;5026214;28;20049;-47
2022/12/14 01:29:46;;;;;;;66.00;29.85;;;-5.90;99.90;;;;;;5026580;28;20103;-50
2022/12/14 01:32:12;;;;;;;63.80;28.85;;;-5.90;99.90;;;;;;5027295;28;20067;-49
2022/12/14 01:34:38;;;;;;;60.63;27.70;;;-5.80;99.90;;;;;;5027313;28;20037;-47
2022/12/14 01:37:03;;;;;;;54.53;27.75;;;-5.90;99.90;;;;;;5028041;28;20045;-48
2022/12/14 01:39:30;;;;;;;69.80;28.50;;;-5.90;99.90;;;;;;5027814;28;20041;-46
2022/12/14 01:41:55;;;;;;;56.17;28.15;;;-6.00;99.90;;;;;;5028251;28;20052;-48
2022/12/14 01:44:21;;;;;;;59.88;27.77;;;-6.00;99.90;;;;;;5027944;28;20094;-49
2022/12/14 01:46:58;;;;;;;63.15;28.98;;;-6.10;99.90;;;;;;5028267;28;20050;-48
2022/12/14 01:49:44;;;;;;;61.88;27.13;;;-6.20;99.90;;;;;;5027357;28;20641;-49
2022/12/14 01:52:29;;;;;;;62.15;29.15;;;-6.20;99.90;;;;;;5027343;28;20128;-48
2022/12/14 01:55:10;;;;;;;61.85;28.17;;;-6.30;99.90;;;;;;5027767;28;20050;-49
2022/12/14 01:57:45;;;;;;;59.33;28.42;;;-6.30;99.90;;;;;;5027693;28;20045;-49
2022/12/14 02:00:12;;;;;;;62.85;28.60;;;-6.40;99.90;;;;;;5027685;28;20049;-49
2022/12/14 02:03:06;;;;;;;62.90;28.88;;;-6.50;99.90;;;;;;5027473;28;20033;-49
2022/12/14 02:05:34;;;;;;;66.68;29.38;;;-6.50;99.90;;;;;;5022738;28;20088;-48
2022/12/14 02:08:01;;;;;;;63.55;30.23;;;-6.60;99.90;;;;;;5027517;28;20046;-52
2022/12/14 02:10:29;;;;;;;66.32;29.38;;;-6.70;99.90;;;;;;5027149;28;20049;-49
2022/12/14 02:13:04;;;;;;;63.92;29.58;;;-6.70;99.90;;;;;;5027686;28;20094;-49
2022/12/14 02:15:32;;;;;;;73.28;32.95;;;-6.80;99.90;;;;;;5027596;28;20072;-51
2022/12/14 02:17:59;;;;;;;59.20;28.73;;;-6.90;99.90;;;;;;5027338;28;20042;-50
2022/12/14 02:20:30;;;;;;;62.17;28.60;;;-7.00;99.90;;;;;;5027099;28;20566;-51
2022/12/14 02:23:11;;;;;;;60.70;29.60;;;-7.00;99.90;;;;;;5027186;28;20052;-49
2022/12/14 02:25:55;;;;;;;59.40;28.20;;;-7.10;99.90;;;;;;5027103;28;20713;-51
2022/12/14 02:28:33;;;;;;;61.38;28.73;;;-7.00;99.90;;;;;;5027339;28;20095;-50
2022/12/14 02:31:10;;;;;;;68.47;30.17;;;-7.10;99.90;;;;;;5026177;28;20049;-50
2022/12/14 02:33:55;;;;;;;63.85;28.15;;;-7.00;99.90;;;;;;5027533;28;20072;-50
2022/12/14 02:36:54;;;;;;;59.88;29.40;;;-6.90;99.90;;;;;;5027583;28;20045;-49
2022/12/14 02:40:04;;;;;;;63.30;26.95;;;-7.20;99.90;;;;;;5027704;28;20041;-49
2022/12/14 02:42:47;;;;;;;60.13;26.88;;;-7.20;99.90;;;;;;5010938;28;20479;-48
2022/12/14 02:45:16;;;;;;;66.30;27.77;;;-7.20;99.90;;;;;;5027429;28;20430;-49
2022/12/14 02:47:53;;;;;;;59.28;27.15;;;-7.30;99.90;;;;;;5026960;28;20490;-50
2022/12/14 02:50:31;;;;;;;61.30;27.67;;;-7.30;99.90;;;;;;5026464;28;20077;-49
2022/12/14 02:53:23;;;;;;;61.00;28.58;;;-7.20;99.90;;;;;;5027125;28;20688;-49
2022/12/14 02:55:51;;;;;;;63.88;27.73;;;-7.40;99.90;;;;;;5025311;28;20053;-49
2022/12/14 02:58:25;;;;;;;56.63;27.27;;;-7.40;99.90;;;;;;5025693;28;20045;-48
2022/12/14 03:00:54;;;;;;;63.15;26.48;;;-7.30;99.90;;;;;;5027095;28;20068;-50
2022/12/14 03:03:20;;;;;;;63.03;26.85;;;-7.40;99.90;;;;;;5027301;28;20042;-48
2022/12/14 03:06:03;;;;;;;60.47;27.38;;;-7.50;99.90;;;;;;5027162;28;20449;-48
2022/12/14 03:08:34;;;;;;;61.63;28.60;;;-7.50;99.90;;;;;;5027164;28;20053;-50
2022/12/14 03:11:03;;;;;;;61.17;26.27;;;-7.50;99.90;;;;;;5027273;28;20039;-48
2022/12/14 03:13:42;;;;;;;56.58;26.98;;;-7.50;99.90;;;;;;5026921;28;20418;-49
2022/12/14 03:16:13;;;;;;;56.38;26.85;;;;;;;;;;5026353;28;20084;-52
2022/12/14 03:18:53;;;;;;;56.05;26.88;;;-7.70;99.90;;;;;;5026660;28;20049;-49
2022/12/14 03:21:26;;;;;;;54.05;24.83;;;-7.80;99.90;;;;;;5026715;28;20135;-49
2022/12/14 03:23:54;;;;;;;60.30;26.98;;;-7.90;99.90;;;;;;5026699;28;20192;-50
2022/12/14 03:26:26;;;;;;;61.47;28.67;;;-7.90;99.90;;;;;;5026670;28;20056;-48
2022/12/14 03:28:59;;;;;;;59.17;25.23;;;-8.00;99.90;;;;;;5026785;28;20049;-48
2022/12/14 03:31:29;;;;;;;;;;;-8.10;99.90;;;;;;5026453;28;20045;-49
2022/12/14 03:33:57;;;;;;;62.08;24.58;;;-8.10;99.90;;;;;;5026263;28;19929;-51
2022/12/14 03:36:36;;;;;;;58.53;25.95;;;-8.10;99.90;;;;;;5026176;28;20579;-50
2022/12/14 03:39:05;;;;;;;60.13;26.88;;;-8.20;99.90;;;;;;5024800;28;20045;-50
2022/12/14 03:41:55;;;;;;;58.90;26.30;;;-8.20;99.90;;;;;;5026046;28;20050;-48
2022/12/14 03:44:45;;;;;;;55.30;25.60;;;-8.20;99.90;;;;;;5026313;28;20085;-47
2022/12/14 03:47:13;;;;;;;51.55;24.27;;;-8.30;99.90;;;;;;5026691;28;20049;-48
2022/12/14 03:49:50;;;;;;;56.35;24.48;;;-8.40;99.90;;;;;;5026358;28;20075;-48
2022/12/14 03:52:22;;;;;;;49.92;24.60;;;-8.40;99.90;;;;;;5025889;28;20054;-48
2022/12/14 03:55:13;;;;;;;49.75;24.85;;;-8.50;99.90;;;;;;5025871;28;20043;-48
2022/12/14 03:57:56;;;;;;;52.63;24.75;;;-8.50;99.90;;;;;;5025808;28;20045;-51
2022/12/14 04:00:23;;;;;;;55.03;25.25;;;-8.50;99.90;;;;;;5028213;28;20443;-50
2022/12/14 04:02:56;;;;;;;58.58;24.80;;;-8.50;99.90;;;;;;5029302;28;20033;-48
2022/12/14 04:05:50;;;;;;;51.47;25.33;;;-8.60;99.90;;;;;;5029331;28;20116;-51
2022/12/14 04:08:37;;;;;;;53.42;25.08;;;-8.50;99.90;;;;;;5028112;28;20071;-50
2022/12/14 04:19:55;;;;;;;53.10;24.45;;;-8.40;99.90;;;;;;5029479;28;20056;-48
2022/12/14 04:22:25;;;;;;;52.25;23.85;;;-8.20;99.90;;;;;;5029245;28;20503;-48
2022/12/14 04:27:48;;;;;;;58.85;25.88;;;-8.20;99.90;;;;;;5028981;28;20415;-47
2022/12/14 04:30:14;;;;;;;57.95;24.83;;;-8.10;99.90;;;;;;5028852;28;20053;-49
2022/12/14 04:32:47;;;;;;;59.30;24.98;;;-8.10;99.90;;;;;;5028732;28;20053;-47
2022/12/14 04:35:35;;;;;;;59.97;23.02;;;-8.10;99.90;;;;;;5028702;28;20431;-48
2022/12/14 04:38:16;;;;;;;57.22;23.45;;;-8.10;99.90;;;;;;5028831;28;20045;-47
2022/12/14 04:40:52;;;;;;;48.78;24.13;;;-8.20;99.90;;;;;;5029033;28;20041;-47
2022/12/14 04:43:23;;;;;;;52.78;24.00;;;-8.10;99.90;;;;;;5029122;28;20053;-48
2022/12/14 04:46:00;;;;;;;60.78;25.95;;;-8.10;99.90;;;;;;5028864;28;20715;-47
2022/12/14 04:48:31;;;;;;;59.08;26.30;;;-8.10;99.90;;;;;;5029226;28;20049;-47
2022/12/14 04:51:19;;;;;;;58.10;26.63;;;-8.10;99.90;;;;;;5028582;28;20068;-47
2022/12/14 04:53:48;;;;;;;63.03;26.30;;;-8.00;99.90;;;;;;5028661;28;20088;-49
2022/12/14 04:56:21;;;;;;;53.97;24.15;;;-8.10;99.90;;;;;;5029053;28;20100;-48
2022/12/14 04:58:47;;;;;;;63.03;26.52;;;-8.00;99.90;;;;;;5028835;28;20087;-48
2022/12/14 05:01:27;;;;;;;56.83;24.65;;;-8.00;99.90;;;;;;5028875;28;20037;-47
2022/12/14 05:03:55;;;;;;;59.10;25.38;;;-8.00;99.90;;;;;;5028733;28;20042;-47
2022/12/14 05:06:42;;;;;;;59.63;25.98;;;-8.00;99.90;;;;;;5028935;28;20041;-48
2022/12/14 05:09:13;;;;;;;64.97;25.77;;;-8.00;99.90;;;;;;5028582;28;20072;-47
2022/12/14 05:11:42;;;;;;;59.65;25.70;;;-8.00;99.90;;;;;;5028711;28;20041;-49
2022/12/14 05:14:31;;;;;;;60.08;25.23;;;-8.00;99.90;;;;;;5028412;28;20548;-47
2022/12/14 05:16:57;;;;;;;57.65;25.25;;;-8.10;99.90;;;;;;5028224;28;20042;-47
2022/12/14 05:19:25;;;;;;;57.17;24.45;;;-8.10;99.90;;;;;;5028193;28;20379;-50
2022/12/14 05:21:52;;;;;;;66.25;27.38;;;-8.20;99.90;;;;;;5028204;28;20052;-48
2022/12/14 05:24:18;;;;;;;58.35;25.50;;;-8.30;99.90;;;;;;5028211;28;20057;-48
2022/12/14 05:26:44;;;;;;;54.72;23.67;;;-8.40;99.90;;;;;;5028162;28;20045;-46
2022/12/14 05:29:10;;;;;;;53.85;23.98;;;-8.50;99.90;;;;;;5028340;28;20049;-49
2022/12/14 05:31:36;;;;;;;54.58;24.98;;;-8.60;99.90;;;;;;5028117;28;20124;-47
2022/12/14 05:34:01;;;;;;;64.47;25.63;;;-8.70;99.90;;;;;;5027402;28;20121;-47
2022/12/14 05:36:27;;;;;;;59.88;25.25;;;-8.70;99.90;;;;;;5028368;28;20038;-46
2022/12/14 05:38:53;;;;;;;59.88;26.13;;;-8.70;99.90;;;;;;5028058;28;20498;-47
2022/12/14 05:41:18;;;;;;;52.20;25.38;;;-8.80;99.90;;;;;;5026688;28;20045;-48
2022/12/14 05:43:44;;;;;;;58.90;25.00;;;-8.70;99.90;;;;;;5026558;28;20049;-48
2022/12/14 05:46:10;;;;;;;58.42;25.27;;;-8.70;99.90;;;;;;5027701;28;20045;-46
2022/12/14 05:48:36;;;;;;;55.90;23.10;;;-8.80;99.90;;;;;;5027802;28;20049;-47
2022/12/14 05:51:10;;;;;;;58.58;24.60;;;-8.80;99.90;;;;;;5027511;28;20131;-47
2022/12/14 05:53:37;;;;;;;52.80;22.63;;;-8.90;99.90;;;;;;5027697;28;20045;-48
2022/12/14 05:56:04;;;;;;;50.72;24.05;;;-9.00;99.90;;;;;;5026382;28;20043;-48
2022/12/14 05:58:30;;;;;;;54.97;24.90;;;-8.80;99.90;;;;;;5027585;28;20041;-47
2022/12/14 06:01:08;;;;;;;54.17;23.83;;;-9.00;99.90;;;;;;5027573;28;20478;-50
2022/12/14 06:03:34;;;;;;;58.67;24.52;;;-8.90;99.90;;;;;;5026722;28;20742;-47
2022/12/14 06:06:04;;;;;;;50.13;22.92;;;-8.90;99.90;;;;;;5027874;28;20080;-49
2022/12/14 06:08:32;;;;;;;53.15;23.40;;;-9.00;99.90;;;;;;5028018;28;20049;-48
2022/12/14 06:11:07;;;;;;;55.65;23.67;;;-9.00;99.90;;;;;;5027676;28;20040;-48
2022/12/14 06:13:37;;;;;;;44.90;21.30;;;-9.00;99.90;;;;;;5028043;28;20356;-50
2022/12/14 06:16:17;;;;;;;52.97;23.65;;;-9.00;99.90;;;;;;5027755;28;20048;-48
2022/12/14 06:18:46;;;;;;;58.10;24.15;;;-9.10;99.90;;;;;;5027857;28;20665;-45
2022/12/14 06:21:14;;;;;;;47.17;21.60;;;-9.00;99.90;;;;;;5026601;28;20818;-52
2022/12/14 06:23:40;;;;;;;56.75;23.50;;;-9.00;99.90;;;;;;5027424;28;20069;-53
2022/12/14 06:26:07;;;;;;;50.78;22.77;;;-9.00;99.90;;;;;;5026603;28;20050;-49
2022/12/14 06:28:34;;;;;;;47.90;21.25;;;-9.10;99.90;;;;;;5027381;28;20377;-54
2022/12/14 06:30:59;;;;;;;47.45;22.02;;;-9.10;99.90;;;;;;5027083;28;20117;-49
2022/12/14 06:33:26;;;;;;;54.05;22.50;;;-9.10;99.90;;;;;;5027084;28;20125;-49
2022/12/14 06:35:51;;;;;;;47.60;20.98;;;-9.00;99.90;;;;;;5027497;28;20037;-49
2022/12/14 06:38:17;;;;;;;50.40;22.55;;;-9.10;99.90;;;;;;5026978;28;20041;-50
2022/12/14 06:40:43;;;;;;;52.17;21.27;;;-9.10;99.90;;;;;;5027034;28;20562;-53
2022/12/14 06:43:09;;;;;;;53.85;21.02;;;-9.20;99.90;;;;;;5026790;28;20041;-46
2022/12/14 06:45:35;;;;;;;49.67;21.58;;;-9.30;99.90;;;;;;5026340;28;20491;-46
2022/12/14 06:48:00;;;;;;;47.20;21.80;;;-9.30;99.90;;;;;;5026520;28;20129;-45
2022/12/14 06:50:26;;;;;;;45.40;21.27;;;-9.30;99.90;;;;;;5026468;28;20041;-46
2022/12/14 06:52:54;;;;;;;45.47;20.48;;;-9.40;99.90;;;;;;5026714;28;20057;-46
2022/12/14 06:55:21;;;;;;;45.70;21.10;;;-8.00;99.90;;;;;;5026583;28;20076;-45
2022/12/14 06:57:50;;;;;;;53.97;21.92;;;-9.40;99.90;;;;;;5026711;28;20033;-45
2022/12/14 07:00:17;;;;;;;46.03;20.13;;;-9.40;99.90;;;;;;5026345;28;20037;-46
2022/12/14 07:02:42;;;;;;;52.15;20.60;;;-9.50;99.90;;;;;;5025016;28;20700;-47
2022/12/14 07:05:08;;;;;;;47.05;20.38;;;-9.40;99.90;;;;;;5026422;28;20045;-46
2022/12/14 07:07:34;;;;;;;44.03;19.63;;;-9.50;99.90;;;;;;5026554;28;20087;-47
2022/12/14 07:10:01;;;;;;;45.38;20.58;;;-9.50;99.90;;;;;;5026296;28;20057;-45
2022/12/14 07:12:27;;;;;;;45.92;20.15;;;-9.40;99.90;;;;;;5026518;28;20069;-46
2022/12/14 07:14:53;;;;;;;44.25;19.30;;;-9.40;99.90;;;;;;5026395;28;20068;-49
2022/12/14 07:17:19;;;;;;;40.63;18.50;;;-9.50;99.90;;;;;;5025980;28;20083;-46
2022/12/14 07:19:45;;;;;;;42.65;18.38;;;-9.50;99.90;;;;;;5026119;28;20427;-46
2022/12/14 07:22:11;;;;;;;45.83;20.30;;;-9.60;99.90;;;;;;5026040;28;20033;-47
2022/12/14 07:24:37;;;;;;;44.50;20.92;;;-9.60;99.90;;;;;;5026553;28;20041;-47
2022/12/14 07:27:03;;;;;;;48.63;19.27;;;-9.60;99.90;;;;;;5026503;28;20087;-46
2022/12/14 07:29:29;;;;;;;43.33;20.33;;;-9.80;99.90;;;;;;5025892;28;20083;-44
2022/12/14 07:31:54;;;;;;;50.97;20.13;;;-9.50;99.90;;;;;;5026738;28;20081;-43
2022/12/14 07:34:20;;;;;;;47.40;20.20;;;-9.50;99.90;;;;;;5029134;28;20037;-44
2022/12/14 07:36:49;;;;;;;41.38;18.60;;;-9.50;99.90;;;;;;5030416;28;20563;-44
2022/12/14 07:39:15;;;;;;;43.97;20.70;;;-9.60;99.90;;;;;;5029825;28;20462;-44
2022/12/14 07:41:42;;;;;;;46.03;19.98;;;-9.60;99.90;;;;;;5030185;28;20045;-44
2022/12/14 07:44:08;;;;;;;41.47;18.13;;;-9.60;99.90;;;;;;5030114;28;20629;-42
2022/12/14 07:46:34;;;;;;;42.45;19.85;;;-9.60;99.90;;;;;;5030029;28;20057;-44
2022/12/14 07:49:01;;;;;;;47.88;21.25;;;-9.80;99.90;;;;;;5030436;28;20069;-43
2022/12/14 07:51:32;;;;;;;49.35;20.27;;;-9.70;99.90;;;;;;5030125;28;20061;-43
2022/12/14 07:53:59;;;;;;;41.28;19.02;;;-9.80;99.90;;;;;;5030189;28;20499;-43
2022/12/14 07:56:30;;;;;;;45.15;18.92;;;-9.80;99.90;;;;;;5030156;28;20057;-43
2022/12/14 07:58:58;;;;;;;35.23;15.60;;;-9.80;99.90;;;;;;5030196;28;20048;-42
2022/12/14 08:01:26;;;;;;;45.65;19.50;;;-9.80;99.90;;;;;;5029716;28;20268;-43
2022/12/14 08:03:56;;;;;;;49.03;19.25;;;-9.80;99.90;;;;;;5029700;28;20132;-43
2022/12/14 08:06:24;;;;;;;39.20;17.92;;;-9.80;99.90;;;;;;5029460;28;20046;-43
2022/12/14 08:08:50;;;;;;;47.67;20.77;;;-9.80;99.90;;;;;;5029767;28;20041;-45
2022/12/14 08:11:17;;;;;;;37.88;17.10;;;-9.80;99.90;;;;;;5029455;28;20624;-43
2022/12/14 08:13:43;;;;;;;42.70;19.15;;;-9.80;99.90;;;;;;5030049;28;20045;-42
2022/12/14 08:16:11;;;;;;;44.45;19.67;;;-9.80;99.90;;;;;;5029684;28;20107;-45
2022/12/14 08:18:37;;;;;;;49.33;19.33;;;-9.70;99.90;;;;;;5029411;28;20045;-44
2022/12/14 08:21:04;;;;;;;37.45;16.77;;;-9.80;99.90;;;;;;5029496;28;20083;-43
2022/12/14 08:23:30;;;;;;;40.05;18.58;;;-9.60;99.90;;;;;;5029148;28;20050;-44
2022/12/14 08:25:57;;;;;;;44.65;20.02;;;-9.60;99.90;;;;;;5029451;28;20063;-43
2022/12/14 08:28:23;;;;;;;45.53;19.60;;;-9.60;99.90;;;;;;5029160;28;20840;-42
2022/12/14 08:30:50;;;;;;;52.13;19.63;;;-9.40;99.90;;;;;;5029802;28;20048;-44
2022/12/14 08:33:16;;;;;;;42.95;19.70;;;-9.50;99.90;;;;;;5029766;28;20116;-42
2022/12/14 08:35:42;;;;;;;44.97;19.70;;;-9.40;99.90;;;;;;5029213;28;20084;-42
2022/12/14 08:38:07;;;;;;;44.85;20.65;;;-9.30;99.90;;;;;;5029487;28;20666;-45
2022/12/14 08:40:37;;;;;;;45.75;21.17;;;-9.40;99.90;;;;;;5029150;28;20625;-42
2022/12/14 08:43:04;;;;;;;46.28;19.77;;;-9.30;99.90;;;;;;5029383;28;20040;-44
2022/12/14 08:45:30;;;;;;;51.15;20.75;;;-9.30;99.90;;;;;;5028444;28;20107;-43
2022/12/14 08:47:57;;;;;;;50.45;23.02;;;-9.20;99.90;;;;;;5028653;28;20061;-44
2022/12/14 08:50:23;;;;;;;49.30;20.23;;;-9.20;99.90;;;;;;5028553;28;20041;-42
2022/12/14 08:52:49;;;;;;;51.35;21.63;;;-9.10;99.90;;;;;;5028478;28;20474;-42
2022/12/14 08:55:15;;;;;;;51.00;22.48;;;-9.00;99.90;;;;;;5028304;28;20052;-45
2022/12/14 08:57:40;;;;;;;53.80;20.58;;;-8.90;99.90;;;;;;5028458;28;20045;-44
2022/12/14 09:00:08;;;;;;;43.83;20.98;;;-8.70;99.90;;;;;;5028573;28;20126;-43
2022/12/14 09:02:34;;;;;;;45.17;20.48;;;-8.60;99.90;;;;;;5026767;28;20045;-43
2022/12/14 09:05:00;;;;;;;56.35;23.17;;;-8.50;99.90;;;;;;5027939;28;20060;-44
2022/12/14 09:07:27;;;;;;;59.72;22.30;;;-8.30;99.90;;;;;;5028440;28;20041;-44
2022/12/14 09:09:52;;;;;;;50.45;21.85;;;-8.20;99.90;;;;;;5028682;28;20049;-44
2022/12/14 09:12:19;;;;;;;56.78;22.45;;;-8.20;99.90;;;;;;5028570;28;20460;-42
2022/12/14 09:14:48;;;;;;;51.03;21.08;;;-8.10;99.90;;;;;;5028301;28;20474;-43
2022/12/14 09:17:17;;;;;;;49.40;21.08;;;-8.00;99.90;;;;;;5027850;28;20472;-44
2022/12/14 09:19:43;;;;;;;48.70;21.02;;;-8.10;99.90;;;;;;5025205;28;20861;-47
2022/12/14 09:22:09;;;;;;;51.03;21.65;;;-7.90;99.90;;;;;;5023848;28;20041;-48
2022/12/14 09:24:34;;;;;;;48.92;21.75;;;-7.90;99.90;;;;;;5026026;28;20132;-43
2022/12/14 09:27:01;;;;;;;44.70;20.23;;;-7.80;99.90;;;;;;5026779;28;20049;-43
2022/12/14 09:29:27;;;;;;;51.38;20.13;;;-7.70;99.90;;;;;;5003952;28;20443;-45
2022/12/14 09:31:54;;;;;;;53.28;23.35;;;-7.60;99.90;;;;;;5024968;28;20049;-44
2022/12/14 09:34:23;;;;;;;53.65;22.23;;;-7.50;99.90;;;;;;5025253;28;20076;-52
2022/12/14 09:36:49;;;;;;;47.97;23.05;;;-6.70;99.90;;;;;;5026048;28;20051;-56
2022/12/14 09:39:14;;;;;;;51.70;22.50;;;-7.40;99.90;;;;;;5025515;28;20049;-60
2022/12/14 09:41:43;;;;;;;50.80;22.58;;;-7.60;99.90;;;;;;5024675;28;20076;-56
2022/12/14 09:44:31;;;;;;;54.90;21.90;;;-7.30;99.90;;;;;;5023070;28;20046;-49
2022/12/14 09:47:18;;;;;;;49.22;21.83;;;-7.30;99.90;;;;;;5025351;28;20049;-51
2022/12/14 09:49:53;;;;;;;50.80;20.25;;;-7.10;99.90;;;;;;5024861;28;20578;-53
2022/12/14 09:52:24;;;;;;;46.97;20.63;;;-7.00;99.90;;;;;;5025053;28;20095;-56
2022/12/14 09:54:52;;;;;;;52.08;20.73;;;-6.90;99.90;;;;;;5024493;28;20049;-57
2022/12/14 09:57:38;;;;;;;45.13;20.42;;;-5.00;99.90;;;;;;5023176;28;20080;-56
2022/12/14 10:00:17;;;;;;;47.00;20.50;;;-6.80;99.90;;;;;;5025849;28;20041;-54
2022/12/14 10:02:58;;;;;;;48.70;20.92;;;-6.70;99.90;;;;;;5025296;28;20052;-53
2022/12/14 10:05:56;;;;;;;49.42;21.08;;;-6.60;99.90;;;;;;5024452;28;20045;-45
2022/12/14 10:08:30;;;;;;;45.17;20.65;;;-6.40;99.90;;;;;;5017039;28;20168;-51
2022/12/14 10:11:13;;;;;;;45.58;20.23;;;-6.30;99.90;;;;;;5024552;28;20053;-52
2022/12/14 10:13:57;;;;;;;46.95;21.30;;;-6.20;99.90;;;;;;5024910;28;20052;-51
2022/12/14 10:16:50;;;;;;;54.95;21.63;;;-6.10;99.90;;;;;;5024997;28;20053;-51
2022/12/14 10:19:40;;;;;;;49.60;21.83;;;-6.20;99.90;;;;;;5022887;28;20099;-53
2022/12/14 10:22:13;;;;;;;57.00;21.85;;;-6.00;99.90;;;;;;5024481;28;20071;-58
2022/12/14 10:24:45;;;;;;;60.30;22.10;;;-6.00;99.90;;;;;;5024168;28;20125;-61
2022/12/14 10:27:19;;;;;;;46.40;21.70;;;-6.00;99.90;;;;;;5006167;28;20045;-56
2022/12/14 10:29:51;;;;;;;47.97;23.05;;;-5.90;99.90;;;;;;5011793;28;20491;-58
2022/12/14 10:32:27;;;;;;;51.97;25.05;;;-5.80;99.90;;;;;;5023742;28;20049;-61
2022/12/14 10:34:53;;;;;;;50.45;23.02;;;-5.70;99.90;;;;;;5005840;28;20033;-57
2022/12/14 10:37:34;;;;;;;51.30;22.75;;;-5.80;99.90;;;;;;5006229;28;20446;-58
2022/12/14 10:40:09;;;;;;;50.22;22.92;;;-5.60;99.90;;;;;;5024407;28;20050;-59
2022/12/14 10:42:53;;;;;;;47.50;21.00;;;-5.50;99.90;;;;;;5022998;28;20064;-58
2022/12/14 10:45:29;;;;;;;51.33;22.30;;;-5.50;99.90;;;;;;5024388;28;20046;-57
2022/12/14 10:48:19;;;;;;;53.00;23.10;;;-5.50;99.90;;;;;;5024067;28;20064;-58
2022/12/14 10:51:03;;;;;;;46.67;20.77;;;-5.60;99.90;;;;;;5023546;28;20644;-57
2022/12/14 10:53:50;;;;;;;48.42;22.42;;;-5.40;99.90;;;;;;5022434;28;20107;-55
2022/12/14 10:56:32;;;;;;;47.17;20.70;;;-5.40;99.90;;;;;;5022747;28;20045;-55
2022/12/14 10:59:16;;;;;;;40.15;19.38;;;-5.30;99.90;;;;;;5024131;28;20042;-56
2022/12/14 11:01:43;;;;;;;54.10;21.95;;;-5.30;99.90;;;;;;5023703;28;20064;-56
2022/12/14 11:04:37;;;;;;;48.22;21.67;;;-5.40;99.90;;;;;;5023632;28;20088;-56
2022/12/14 11:07:14;;;;;;;45.78;20.23;;;-5.20;99.90;;;;;;5024479;28;20135;-57
2022/12/14 11:09:41;;;;;;;45.80;19.98;;;-5.30;99.90;;;;;;5028160;28;20049;-58
2022/12/14 11:12:21;;;;;;;45.75;20.67;;;-5.20;99.90;;;;;;5026724;28;20053;-57
2022/12/14 11:14:59;;;;;;;49.92;21.90;;;-5.00;99.90;;;;;;5026794;28;20049;-58
2022/12/14 11:17:42;;;;;;;41.45;19.20;;;-5.00;99.90;;;;;;5026290;28;20053;-55
2022/12/14 11:20:08;;;;;;;42.58;19.55;;;-5.00;99.90;;;;;;5027744;28;20049;-50
2022/12/14 11:22:48;;;;;;;45.70;21.02;;;-5.00;99.90;;;;;;5027803;28;20060;-48
2022/12/14 11:25:32;;;;;;;46.85;20.73;;;-5.00;99.90;;;;;;5027608;28;20521;-53
2022/12/14 11:28:00;;;;;;;44.88;20.58;;;-4.90;99.90;;;;;;5027528;28;20048;-53
2022/12/14 11:30:27;;;;;;;42.17;19.27;;;-5.00;99.90;;;;;;5009162;28;20084;-53
2022/12/14 11:32:53;;;;;;;36.78;17.55;;;-5.00;99.90;;;;;;5027154;28;20056;-48
2022/12/14 11:35:20;;;;;;;36.00;17.90;;;-4.90;99.90;;;;;;5027671;28;20056;-53
2022/12/14 11:37:49;;;;;;;39.83;18.40;;;-4.90;99.90;;;;;;5027307;28;20073;-51
2022/12/14 11:40:22;;;;;;;41.65;19.48;;;-4.80;99.90;;;;;;5026243;28;20387;-53
2022/12/14 11:42:49;;;;;;;41.58;18.90;;;-4.80;99.90;;;;;;5025025;28;20052;-49
2022/12/14 11:45:24;;;;;;;39.63;19.13;;;-4.80;99.90;;;;;;5027032;28;20049;-51
2022/12/14 11:48:19;;;;;;;41.70;18.83;;;-4.90;99.90;;;;;;5026932;28;20482;-48
2022/12/14 11:50:47;;;;;;;37.65;18.10;;;-4.90;99.90;;;;;;5025553;28;20119;-50
2022/12/14 11:53:15;;;;;;;36.25;17.30;;;-4.80;99.90;;;;;;5027284;28;20526;-58
2022/12/14 11:55:56;;;;;;;33.90;16.92;;;-5.00;99.90;;;;;;5026117;28;20049;-48
2022/12/14 11:58:26;;;;;;;41.22;18.00;;;-4.80;99.90;;;;;;5027568;28;20072;-49
2022/12/14 12:01:04;;;;;;;38.28;17.50;;;-4.80;99.90;;;;;;5026776;28;20042;-49
2022/12/14 12:03:41;;;;;;;40.03;19.08;;;-4.80;99.90;;;;;;5026704;28;20103;-45
2022/12/14 12:06:11;;;;;;;43.13;18.95;;;-3.20;99.90;;;;;;5027011;28;20049;-46
2022/12/14 12:08:39;;;;;;;34.90;18.17;;;-4.80;99.90;;;;;;5027178;28;20073;-46
2022/12/14 12:11:20;;;;;;;40.90;18.80;;;-4.80;99.90;;;;;;5026542;28;20060;-50
2022/12/14 12:13:51;;;;;;;36.80;17.58;;;-4.80;99.90;;;;;;5026495;28;20456;-44
2022/12/14 12:16:22;;;;;;;34.65;17.58;;;-4.80;99.90;;;;;;5027136;28;20041;-45
2022/12/14 12:18:47;;;;;;;38.17;19.58;;;-4.80;99.90;;;;;;5025020;28;20077;-44
2022/12/14 12:21:19;;;;;;;40.65;17.58;;;-4.70;99.90;;;;;;5026841;28;20148;-44
2022/12/14 12:24:23;;;;;;;37.97;18.93;;;-4.80;99.90;;;;;;5027123;28;20110;-44
2022/12/14 12:26:55;;;;;;;41.65;17.60;;;-4.70;99.90;;;;;;5026877;28;20056;-44
2022/12/14 12:29:44;;;;;;;37.17;18.95;;;-4.70;99.90;;;;;;5007980;28;20499;-45
2022/12/14 12:32:28;;;;;;;49.22;19.65;;;-4.70;99.90;;;;;;5026362;28;20156;-44
2022/12/14 12:34:59;;;;;;;39.92;18.90;;;-4.60;99.90;;;;;;5026744;28;20481;-45
2022/12/14 12:37:55;;;;;;;39.47;18.30;;;-4.60;99.90;;;;;;5027030;28;20107;-43
2022/12/14 12:40:30;;;;;;;49.42;20.25;;;-4.60;99.90;;;;;;5023631;28;20583;-45
2022/12/14 12:43:02;;;;;;;41.67;19.00;;;-4.50;99.90;;;;;;5026569;28;20045;-44
2022/12/14 12:45:43;;;;;;;44.40;19.33;;;-4.50;99.90;;;;;;5027326;28;20041;-40
2022/12/14 12:48:13;;;;;;;38.92;17.73;;;-4.50;99.90;;;;;;5027008;28;20276;-44
2022/12/14 12:50:46;;;;;;;44.53;20.02;;;-4.50;99.90;;;;;;5026237;28;20732;-53
2022/12/14 12:53:14;;;;;;;;;;;-4.50;99.90;;;;;;5024746;28;20053;-52
2022/12/14 12:55:44;;;;;;;39.00;19.42;;;-4.50;99.90;;;;;;5026209;28;20007;-45
2022/12/14 12:58:21;;;;;;;40.83;18.77;;;-4.50;99.90;;;;;;5026060;28;20127;-47
2022/12/14 13:00:50;;;;;;;42.88;19.83;;;-4.40;99.90;;;;;;5025663;28;20041;-44
2022/12/14 13:03:26;;;;;;;40.05;17.95;;;-4.50;99.90;;;;;;5025890;28;20049;-47